Date,TemperatureHighF,TemperatureAvgF,TemperatureLowF,DewpointHighF,DewpointAvgF,DewpointLowF,HumidityHigh,HumidityAvg,HumidityLow,PressureMaxIn,PressureMinIn,WindSpeedMaxMPH,WindSpeedAvgMPH,GustSpeedMaxMPH,PrecipitationSumIn
2013-1-1,65,58,49,-100,-100,-100,0,0,100,30.18,29.87,27,16,31,0.00
2013-1-2,49,44,42,-100,-100,-100,0,0,100,30.29,30.15,27,20,30,0.00
2013-1-3,49,46,43,-100,-100,-100,0,0,100,30.39,30.27,21,18,25,0.00
2013-1-4,50,49,48,-100,-100,-100,0,0,100,30.43,30.33,25,18,28,0.00
2013-1-5,49,47,45,-100,-100,-100,0,0,100,30.35,30.23,25,17,29,0.00
2013-1-6,54,49,43,-100,-100,-100,0,0,100,30.35,30.24,19,15,22,0.00
2013-1-7,55,51,48,-100,-100,-100,0,0,100,30.29,30.04,22,15,26,0.00
2013-1-8,62,58,53,-100,-100,-100,0,0,100,30.03,29.83,23,12,26,0.00
2013-1-9,65,60,57,-100,-100,-100,0,0,100,30.04,29.79,27,12,34,0.00
2013-1-10,62,58,55,-100,-100,-100,0,0,100,30.13,30.00,16,7,20,0.00
2013-1-11,64,60,56,-100,-100,-100,0,0,100,30.05,29.84,12,7,14,0.00
2013-1-12,67,65,63,-100,-100,-100,0,0,100,29.86,29.68,22,14,24,0.00
2013-1-13,67,52,46,-100,-100,-100,0,0,100,30.04,29.74,35,21,38,0.00
2013-1-14,47,47,46,-100,-100,-100,0,0,100,30.11,30.08,15,13,18,0.00
2013-1-15,47,43,40,-100,-100,-100,0,0,100,30.16,30.02,27,20,33,0.00
2013-1-16,51,45,39,-100,-100,-100,0,0,100,30.33,30.17,28,16,32,0.00
2013-1-17,56,48,40,-100,-100,-100,0,0,100,30.45,30.29,12,7,13,0.00
2013-1-18,55,52,49,-100,-100,-100,0,0,100,30.50,30.35,15,9,17,0.00
2013-1-19,65,56,53,-100,-100,-100,0,0,100,30.33,30.19,12,8,14,0.00
2013-1-20,64,57,55,-100,-100,-100,0,0,100,30.25,30.12,10,6,11,0.00
2013-1-21,62,57,55,-100,-100,-100,0,0,100,30.24,30.12,10,5,11,0.00
2013-1-22,60,57,55,-100,-100,-100,0,0,100,30.30,30.18,11,8,13,0.00
2013-1-23,67,61,57,-100,-100,-100,0,0,100,30.34,30.24,11,7,12,0.00
2013-1-24,70,64,61,-100,-100,-100,0,0,100,30.29,30.16,17,10,21,0.00
2013-1-25,69,66,63,-100,-100,-100,0,0,100,30.18,30.07,16,11,19,0.00
2013-1-26,69,64,61,-100,-100,-100,0,0,100,30.17,30.08,14,8,15,0.00
2013-1-27,67,65,62,-100,-100,-100,0,0,100,30.11,30.00,17,11,19,0.00
2013-1-28,68,66,64,-100,-100,-100,0,0,100,30.09,29.95,16,13,19,0.00
2013-1-29,70,68,65,-100,-100,-100,0,0,100,29.93,29.61,27,19,30,0.00
2013-1-30,65,60,57,-100,-100,-100,0,0,100,30.25,29.75,29,22,37,0.00
2013-1-31,62,61,55,-100,-100,-100,0,0,100,30.32,30.24,13,10,19,0.00
2013-2-1,65,62,59,-100,-100,-100,0,0,100,30.36,30.23,12,7,14,0.00
2013-2-2,69,63,60,-100,-100,-100,0,0,100,30.25,30.17,9,6,10,0.00
2013-2-3,63,61,58,-100,-100,-100,0,0,100,30.29,30.06,18,10,20,0.00
2013-2-4,68,64,62,-100,-100,-100,0,0,100,30.03,29.83,12,7,13,0.00
2013-2-5,70,66,64,-100,-100,-100,0,0,100,29.97,29.86,13,8,15,0.00
2013-2-6,65,64,61,-100,-100,-100,0,0,100,30.01,29.82,25,16,30,0.00
2013-2-7,65,63,62,-100,-100,-100,0,0,100,29.98,29.88,17,7,19,0.00
2013-2-8,66,61,57,-100,-100,-100,0,0,100,30.17,29.99,28,14,33,0.00
2013-2-9,66,64,61,-100,-100,-100,0,0,100,30.09,29.83,19,15,22,0.00
2013-2-10,70,65,63,-100,-100,-100,0,0,100,29.92,29.79,19,13,21,0.00
2013-2-11,64,61,57,-100,-100,-100,0,0,100,29.98,29.90,29,21,34,0.00
2013-2-12,63,61,59,-100,-100,-100,0,0,100,29.96,29.80,22,12,25,0.00
2013-2-13,61,55,48,-100,-100,-100,0,0,100,30.15,29.97,24,15,30,0.00
2013-2-14,61,57,54,-100,-100,-100,0,0,100,30.15,30.05,14,10,17,0.00
2013-2-15,64,60,55,-100,-100,-100,0,0,100,30.30,30.07,26,10,30,0.00
2013-2-16,58,52,47,-100,-100,-100,0,0,100,30.45,30.28,25,14,31,0.00
2013-2-17,64,61,55,-100,-100,-100,0,0,100,30.27,30.04,21,14,26,0.00
2013-2-18,68,66,64,-100,-100,-100,0,0,100,30.02,29.87,23,17,28,0.00
2013-2-19,64,60,57,-100,-100,-100,0,0,100,30.21,30.00,24,21,30,0.00
2013-2-20,66,64,62,-100,-100,-100,0,0,100,30.06,29.76,22,17,28,0.00
2013-2-21,72,68,65,-100,-100,-100,0,0,100,29.81,29.62,21,15,27,0.00
2013-2-22,65,63,60,-100,-100,-100,0,0,100,29.93,29.80,23,14,26,0.00
2013-2-23,63,58,52,-100,-100,-100,0,0,100,30.01,29.88,23,13,25,0.00
2013-2-24,64,61,59,-100,-100,-100,0,0,100,29.91,29.65,20,14,26,0.00
2013-2-25,71,64,53,-100,-100,-100,0,0,100,29.85,29.54,33,18,41,0.00
2013-2-26,63,54,44,-100,-100,-100,0,0,100,29.98,29.86,16,10,20,0.00
2013-2-27,66,60,57,-100,-100,-100,0,0,100,30.19,29.89,20,-29,25,0.00
2013-2-28,57,53,47,-100,-100,-100,0,0,100,30.29,30.17,26,17,31,0.00
2013-3-1,61,54,46,-100,-100,-100,0,0,100,30.29,30.14,15,8,17,0.00
2013-3-2,58,54,47,-100,-100,-100,0,0,100,30.40,30.24,25,18,30,0.00
2013-3-3,63,58,53,-100,-100,-100,0,0,100,30.28,30.02,22,13,26,0.00
2013-3-4,69,66,62,-100,-100,-100,0,0,100,30.00,29.79,29,23,37,0.00
2013-3-5,66,63,57,-100,-100,-100,0,0,100,30.30,29.81,32,21,39,0.00
2013-3-6,58,54,48,-100,-100,-100,0,0,100,30.42,30.25,24,14,29,0.00
2013-3-7,64,62,58,-100,-100,-100,0,0,100,30.24,30.14,21,14,24,0.00
2013-3-8,67,64,63,-100,-100,-100,0,0,100,30.15,30.04,18,14,21,0.00
2013-3-9,67,66,65,-100,-100,-100,0,0,100,30.04,29.72,20,15,23,0.00
2013-3-10,69,64,57,-100,-100,-100,0,0,100,30.04,29.65,37,18,46,0.00
2013-3-11,64,58,53,-100,-100,-100,0,0,100,30.15,30.01,26,17,31,0.00
2013-3-12,64,61,58,-100,-100,-100,0,0,100,30.22,30.07,15,10,17,0.00
2013-3-13,65,61,56,-100,-100,-100,0,0,100,30.42,30.22,18,13,20,0.00
2013-3-14,67,64,61,-100,-100,-100,0,0,100,30.40,30.28,14,10,17,0.00
2013-3-15,69,66,63,-100,-100,-100,0,0,100,30.28,30.08,17,12,22,0.00
2013-3-16,69,67,65,-100,-100,-100,0,0,100,30.06,29.84,20,16,23,0.00
2013-3-17,71,68,67,-100,-100,-100,0,0,100,29.86,29.70,17,14,21,0.00
2013-3-18,73,69,67,-100,-100,-100,0,0,100,29.87,29.73,13,7,15,0.00
2013-3-19,70,68,66,-100,-100,-100,0,0,100,29.96,29.85,26,16,30,0.00
2013-3-20,67,66,63,-100,-100,-100,0,0,100,30.14,29.90,36,20,45,0.00
2013-3-21,68,66,64,-100,-100,-100,0,0,100,30.04,29.69,20,14,24,0.00
2013-3-22,70,69,67,-100,-100,-100,0,0,100,29.73,29.65,17,11,21,0.00
2013-3-23,72,68,64,-100,-100,-100,0,0,100,29.71,29.59,16,9,18,0.00
2013-3-24,68,60,55,-100,-100,-100,0,0,100,30.11,29.63,34,22,39,0.00
2013-3-25,60,54,48,-100,-100,-100,0,0,100,30.34,30.11,30,19,36,0.00
2013-3-26,58,55,51,-100,-100,-100,0,0,100,30.47,30.32,25,15,28,0.00
2013-3-27,64,61,58,-100,-100,-100,0,0,100,30.35,30.21,18,14,21,0.00
2013-3-28,67,65,64,-100,-100,-100,0,0,100,30.23,30.16,16,10,18,0.00
2013-3-29,69,67,64,-100,-100,-100,0,0,100,30.19,30.10,13,9,14,0.00
2013-3-30,70,68,66,-100,-100,-100,0,0,100,30.11,29.96,17,12,20,0.00
2013-3-31,73,70,68,-100,-100,-100,0,0,100,29.97,29.83,20,14,23,0.00
2013-4-1,69,68,67,-100,-100,-100,0,0,100,30.04,29.89,19,12,24,0.00
2013-4-2,73,69,68,-100,-100,-100,0,0,100,29.99,29.79,23,15,27,0.00
2013-4-3,69,64,58,-100,-100,-100,0,0,100,30.08,29.77,26,19,30,0.00
2013-4-4,59,56,53,-100,-100,-100,0,0,100,30.17,30.05,21,18,26,0.00
2013-4-5,61,56,51,-100,-100,-100,0,0,100,30.27,30.10,21,13,24,0.00
2013-4-6,69,66,62,-100,-100,-100,0,0,100,30.10,29.93,18,15,22,0.00
2013-4-7,71,68,67,-100,-100,-100,0,0,100,29.97,29.84,19,14,21,0.00
2013-4-8,72,70,68,-100,-100,-100,0,0,100,29.84,29.72,21,16,26,0.00
2013-4-9,72,71,69,-100,-100,-100,0,0,100,29.76,29.63,23,19,27,0.00
2013-4-10,74,66,55,-100,-100,-100,0,0,100,29.81,29.64,29,19,34,0.00
2013-4-11,68,57,48,-100,-100,-100,0,0,100,29.93,29.79,35,18,41,0.00
2013-4-12,68,65,59,-100,-100,-100,0,0,100,29.99,29.87,19,11,21,0.00
2013-4-13,69,67,66,-100,-100,-100,0,0,100,29.94,29.78,21,14,24,0.00
2013-4-14,71,69,65,-100,-100,-100,0,0,100,29.79,29.67,18,11,21,0.00
2013-4-15,74,71,70,-100,-100,-100,0,0,100,29.83,29.71,19,14,22,0.00
2013-4-16,74,72,71,-100,-100,-100,0,0,100,29.91,29.80,22,14,27,0.00
2013-4-17,73,72,72,-100,-100,-100,0,0,100,29.89,29.70,23,16,28,0.00
2013-4-18,73,67,59,-100,-100,-100,0,0,100,30.01,29.66,37,20,44,0.00
2013-4-19,66,59,53,-100,-100,-100,0,0,100,30.27,30.04,35,23,42,0.00
2013-4-20,65,62,59,-100,-100,-100,0,0,100,30.22,30.06,20,16,23,0.00
2013-4-21,70,67,64,-100,-100,-100,0,0,100,30.13,30.03,21,16,26,0.00
2013-4-22,71,69,67,-100,-100,-100,0,0,100,30.09,29.94,17,12,21,0.00
2013-4-23,73,71,69,-100,-100,-100,0,0,100,29.96,29.86,17,14,21,0.00
2013-4-24,72,58,52,-100,-100,-100,0,0,100,30.17,29.96,34,20,37,0.00
2013-4-25,67,63,61,-100,-100,-100,0,0,100,30.27,30.15,22,17,23,0.00
2013-4-26,73,70,68,-100,-100,-100,0,0,100,30.18,30.06,18,14,21,0.00
2013-4-27,73,72,70,-100,-100,-100,0,0,100,30.09,29.95,18,13,21,0.00
2013-4-28,72,70,64,-100,-100,-100,0,0,100,30.09,29.87,26,16,31,0.00
2013-4-29,72,70,69,-100,-100,-100,0,0,100,29.92,29.81,19,11,22,0.00
2013-4-30,75,72,69,-100,-100,-100,0,0,100,29.82,29.74,17,11,20,0.00
2013-5-1,76,73,71,-100,-100,-100,0,0,100,29.88,29.77,16,10,19,0.00
2013-5-2,74,68,55,-100,-100,-100,0,0,100,30.21,29.84,36,18,46,0.00
2013-5-3,66,58,51,-100,-100,-100,0,0,100,30.25,30.07,36,26,45,0.00
2013-5-4,70,66,59,-100,-100,-100,0,0,100,30.10,29.91,17,12,20,0.00
2013-5-5,72,67,61,-100,-100,-100,0,0,100,30.09,29.94,16,12,18,0.00
2013-5-6,72,69,65,-100,-100,-100,0,0,100,30.13,29.95,15,8,17,0.00
2013-5-7,72,70,65,-100,-100,-100,0,0,100,30.09,29.98,17,8,19,0.00
2013-5-8,74,72,71,-100,-100,-100,0,0,100,30.06,29.95,18,15,21,0.00
2013-5-9,74,73,73,-100,-100,-100,0,0,100,29.97,29.83,16,14,21,0.00
2013-5-10,74,72,69,-100,-100,-100,0,0,100,29.96,29.80,21,14,25,0.00
2013-5-11,78,73,69,-100,-100,-100,0,0,100,30.06,29.94,20,-20,23,0.00
2013-5-12,75,73,71,-100,-100,-100,0,0,100,30.16,30.01,21,16,26,0.00
2013-5-13,74,72,70,-100,-100,-100,0,0,100,30.25,30.15,15,11,17,0.00
2013-5-14,75,73,71,-100,-100,-100,0,0,100,30.22,30.09,20,15,23,0.00
2013-5-15,74,74,72,-100,-100,-100,0,0,100,30.13,29.91,25,19,28,0.00
2013-5-16,76,67,73,-100,-100,-100,0,0,100,29.92,29.78,24,20,28,0.00
2013-5-17,78,74,74,-100,-100,-100,0,0,100,29.92,29.81,21,16,26,0.00
2013-5-18,78,76,75,-100,-100,-100,0,0,100,29.94,29.87,24,18,29,0.00
2013-5-19,78,77,76,-100,-100,-100,0,0,100,29.89,29.78,24,19,29,0.00
2013-5-20,79,78,77,-100,-100,-100,0,0,100,29.86,29.75,23,18,26,0.00
2013-5-21,79,78,77,-100,-100,-100,0,0,100,29.83,29.72,22,16,25,0.00
2013-5-22,80,78,78,-100,-100,-100,0,0,100,29.89,29.78,17,13,20,0.00
2013-5-23,81,79,77,-100,-100,-100,0,0,100,30.01,29.87,19,14,22,0.00
2013-5-24,80,79,78,-100,-100,-100,0,0,100,30.10,29.98,21,16,24,0.00
2013-5-25,80,79,78,-100,-100,-100,0,0,100,30.12,30.03,22,18,25,0.00
2013-5-26,80,79,78,-100,-100,-100,0,0,100,30.10,29.99,20,-514,24,0.00
2013-5-27,80,79,78,-100,-100,-100,0,0,100,30.02,29.90,0,-999,0,0.00
2013-5-28,80,79,78,-100,-100,-100,0,0,100,29.93,29.82,0,-999,0,0.00
2013-5-29,80,79,79,-100,-100,-100,0,0,100,29.86,29.77,0,-999,0,0.00
2013-5-30,81,80,79,-100,-100,-100,0,0,100,29.85,29.78,0,-999,0,0.00
2013-5-31,82,81,80,-100,-100,-100,0,0,100,29.90,29.82,0,-999,0,0.00
2013-6-1,82,81,80,-100,-100,-100,0,0,100,29.89,29.82,0,-999,0,0.00
2013-6-2,85,80,74,-100,-100,-100,0,0,100,30.06,29.87,0,-999,0,0.00
2013-6-3,82,79,77,-100,-100,-100,0,0,100,29.95,29.84,0,-999,0,0.00
2013-6-4,83,80,78,-100,-100,-100,0,0,100,29.91,29.82,0,-999,0,0.00
2013-6-5,85,82,78,-100,-100,-100,0,0,100,29.87,29.77,0,-999,0,0.00
2013-6-6,84,82,80,-100,-100,-100,0,0,100,29.84,29.75,0,-999,0,0.00
2013-6-7,84,78,71,-100,-100,-100,0,0,100,29.93,29.82,0,-999,0,0.00
2013-6-8,83,80,75,-100,-100,-100,0,0,100,29.91,29.81,18,-702,20,0.00
2013-6-9,84,81,75,-100,-100,-100,0,0,100,29.93,29.84,23,14,26,0.00
2013-6-10,85,82,81,-100,-100,-100,0,0,100,29.97,29.92,17,11,20,0.00
2013-6-11,83,82,82,-100,-100,-100,0,0,100,30.04,29.95,20,15,23,0.00
2013-6-12,84,82,82,-100,-100,-100,0,0,100,30.05,29.98,17,14,20,0.00
2013-6-13,84,83,82,-100,-100,-100,0,0,100,30.05,29.93,18,12,20,0.00
2013-6-14,85,83,82,-100,-100,-100,0,0,100,29.98,29.89,15,12,17,0.00
2013-6-15,85,83,82,-100,-100,-100,0,0,100,29.98,29.89,17,13,20,0.00
2013-6-16,84,83,82,-100,-100,-100,0,0,100,30.02,29.93,21,16,24,0.00
2013-6-17,85,84,82,-100,-100,-100,0,0,100,30.00,29.89,21,17,24,0.00
2013-6-18,84,83,80,-100,-100,-100,0,0,100,29.99,29.88,20,15,24,0.00
2013-6-19,85,83,81,-100,-100,-100,0,0,100,29.98,29.91,21,14,24,0.00
2013-6-20,84,83,82,-100,-100,-100,0,0,100,30.06,29.96,20,14,21,0.00
2013-6-22,84,84,83,-100,-100,-100,0,0,100,30.04,29.95,18,12,20,0.00
2013-6-23,84,83,82,-100,-100,-100,0,0,100,30.01,29.93,18,15,20,0.00
2013-6-24,85,83,82,-100,-100,-100,0,0,100,30.05,29.96,20,16,23,0.00
2013-6-25,85,83,82,-100,-100,-100,0,0,100,30.02,29.93,21,18,25,0.00
2013-6-26,84,83,82,-100,-100,-100,0,0,100,30.00,29.92,22,18,26,0.00
2013-6-27,85,83,81,-100,-100,-100,0,0,100,30.02,29.94,19,13,22,0.00
2013-6-28,86,83,81,-100,-100,-100,0,0,100,29.99,29.83,20,14,24,0.00
2013-6-29,86,83,80,-100,-100,-100,0,0,100,29.86,29.72,21,16,25,0.00
2013-6-30,91,84,78,-100,-100,-100,0,0,100,29.88,29.77,21,11,27,0.00
2013-7-1,85,82,78,-100,-100,-100,0,0,100,29.95,29.82,20,12,24,0.00
2013-7-2,81,35,77,-100,-100,-100,0,0,100,30.01,29.94,16,8,19,0.00
2013-7-3,-200,0,200,-100,-100,-100,0,0,100,0.00,40.00,17,9,19,0.00
2013-7-4,-200,0,200,-100,-100,-100,0,0,100,0.00,40.00,14,8,17,0.00
2013-7-5,-200,0,200,-100,-100,-100,0,0,100,0.00,40.00,17,10,19,0.00
2013-7-6,-200,0,200,-100,-100,-100,0,0,100,0.00,40.00,19,11,22,0.00
2013-7-7,-200,0,200,-100,-100,-100,0,0,100,0.00,40.00,26,11,29,0.00
2013-7-8,-200,0,200,-100,-100,-100,0,0,100,0.00,40.00,22,15,26,0.00
2013-7-9,-200,0,200,-100,-100,-100,0,0,100,0.00,40.00,18,13,21,0.00
2013-7-10,-200,0,200,-100,-100,-100,0,0,100,0.00,40.00,18,12,22,0.00
2013-7-11,-200,0,200,-100,-100,-100,0,0,100,0.00,40.00,19,13,24,0.00
2013-7-12,-200,0,200,-100,-100,-100,0,0,100,0.00,40.00,19,11,22,0.00
2013-7-13,-200,0,200,-100,-100,-100,0,0,100,0.00,40.00,17,9,19,0.00
2013-7-14,-200,0,200,-100,-100,-100,0,0,100,0.00,40.00,24,12,26,0.00
2013-7-15,-200,0,200,-100,-100,-100,0,0,100,0.00,40.00,33,17,41,0.00
2013-7-16,-200,0,200,-100,-100,-100,0,0,100,0.00,40.00,27,17,33,0.00
2013-7-17,-200,0,200,-100,-100,-100,0,0,100,0.00,40.00,22,13,29,0.00
2013-7-18,-200,0,200,-100,-100,-100,0,0,100,0.00,40.00,25,13,33,0.00
2013-7-19,-200,0,200,-100,-100,-100,0,0,100,0.00,40.00,16,10,19,0.00
2013-7-20,-200,0,200,-100,-100,-100,0,0,100,0.00,40.00,19,11,23,0.00
2013-7-21,-200,0,200,-100,-100,-100,0,0,100,0.00,40.00,24,14,29,0.00
2013-7-22,-200,0,200,-100,-100,-100,0,0,100,0.00,40.00,23,19,28,0.00
2013-7-23,-200,0,200,-100,-100,-100,0,0,100,0.00,40.00,25,19,28,0.00
2013-7-24,-200,0,200,-100,-100,-100,0,0,100,0.00,40.00,23,14,27,0.00
2013-7-25,-200,0,200,-100,-100,-100,0,0,100,0.00,40.00,21,13,23,0.00
2013-7-26,-200,0,200,-100,-100,-100,0,0,100,0.00,40.00,26,16,29,0.00
2013-7-27,-200,0,200,-100,-100,-100,0,0,100,0.00,40.00,24,16,28,0.00
2013-7-28,-200,0,200,-100,-100,-100,0,0,100,0.00,40.00,23,15,27,0.00
2013-7-29,-200,0,200,-100,-100,-100,0,0,100,0.00,40.00,23,18,26,0.00
2013-7-30,-200,0,200,-100,-100,-100,0,0,100,0.00,40.00,22,16,26,0.00
2013-7-31,-200,0,200,-100,-100,-100,0,0,100,0.00,40.00,18,13,21,0.00
2013-8-1,-200,0,200,-100,-100,-100,0,0,100,0.00,40.00,17,13,19,0.00
2013-8-2,-200,0,200,-100,-100,-100,0,0,100,0.00,40.00,18,11,20,0.00
2013-8-3,-200,0,200,-100,-100,-100,0,0,100,0.00,40.00,20,13,22,0.00
2013-8-4,-200,0,200,-100,-100,-100,0,0,100,0.00,40.00,19,14,22,0.00
2013-8-5,-200,0,200,-100,-100,-100,0,0,100,0.00,40.00,23,17,28,0.00
2013-8-6,-200,0,200,-100,-100,-100,0,0,100,0.00,40.00,25,18,30,0.00
2013-8-7,-200,0,200,-100,-100,-100,0,0,100,0.00,40.00,22,17,27,0.00
2013-8-8,-200,0,200,-100,-100,-100,0,0,100,0.00,40.00,21,14,26,0.00
2013-8-9,-200,0,200,-100,-100,-100,0,0,100,0.00,40.00,19,9,21,0.00
2013-8-10,-200,0,200,-100,-100,-100,0,0,100,0.00,40.00,19,10,23,0.00
2013-8-11,-200,0,200,-100,-100,-100,0,0,100,0.00,40.00,20,10,23,0.00
2013-8-12,-200,0,200,-100,-100,-100,0,0,100,0.00,40.00,18,12,20,0.00
2013-8-13,-200,0,200,-100,-100,-100,0,0,100,0.00,40.00,20,14,24,0.00
2013-8-14,-200,0,200,-100,-100,-100,0,0,100,0.00,40.00,23,17,27,0.00
2013-8-15,-200,0,200,-100,-100,-100,0,0,100,0.00,40.00,19,10,21,0.00
2013-8-16,-200,0,200,-100,-100,-100,0,0,100,0.00,40.00,32,10,39,0.00
2013-8-17,-200,0,200,-100,-100,-100,0,0,100,0.00,40.00,20,12,22,0.00
2013-8-18,-200,0,200,-100,-100,-100,0,0,100,0.00,40.00,17,10,19,0.00
2013-8-19,-200,0,200,-100,-100,-100,0,0,100,0.00,40.00,19,13,23,0.00
2013-8-20,-200,0,200,-100,-100,-100,0,0,100,0.00,40.00,27,10,31,0.00
2013-8-21,-200,0,200,-100,-100,-100,0,0,100,0.00,40.00,16,11,19,0.00
2013-8-22,-200,0,200,-100,-100,-100,0,0,100,0.00,40.00,16,10,18,0.00
2013-8-23,-200,0,200,-100,-100,-100,0,0,100,0.00,40.00,18,11,20,0.00
2013-8-24,-200,0,200,-100,-100,-100,0,0,100,0.00,40.00,23,14,27,0.00
2013-8-25,-200,0,200,-100,-100,-100,0,0,100,0.00,40.00,23,12,27,0.00
2013-8-26,-200,0,200,-100,-100,-100,0,0,100,0.00,40.00,25,11,29,0.00
2013-8-27,-200,0,200,-100,-100,-100,0,0,100,0.00,40.00,18,16,22,0.00
2013-8-28,-200,0,200,-100,-100,-100,0,0,100,0.00,40.00,16,13,18,0.00
2013-8-29,-200,0,200,-100,-100,-100,0,0,100,0.00,40.00,15,9,17,0.00
2013-8-30,-200,0,200,-100,-100,-100,0,0,100,0.00,40.00,16,9,18,0.00
2013-8-31,-200,0,200,-100,-100,-100,0,0,100,0.00,40.00,17,10,19,0.00
2013-9-1,-200,0,200,-100,-100,-100,0,0,100,0.00,40.00,19,12,21,0.00
2013-9-2,-200,0,200,-100,-100,-100,0,0,100,0.00,40.00,18,12,21,0.00
2013-9-3,-200,0,200,-100,-100,-100,0,0,100,0.00,40.00,15,8,17,0.00
2013-9-4,-200,0,200,-100,-100,-100,0,0,100,0.00,40.00,17,10,18,0.00
2013-9-5,-200,0,200,-100,-100,-100,0,0,100,0.00,40.00,20,11,25,0.00
2013-9-6,-200,0,200,-100,-100,-100,0,0,100,0.00,40.00,20,11,22,0.00
2013-9-7,-200,0,200,-100,-100,-100,0,0,100,0.00,40.00,18,11,29,0.00
2013-9-8,-200,0,200,-100,-100,-100,0,0,100,0.00,40.00,25,11,32,0.00
2013-9-9,-200,0,200,-100,-100,-100,0,0,100,0.00,40.00,31,18,36,0.00
2013-9-10,-200,0,200,-100,-100,-100,0,0,100,0.00,40.00,25,16,31,0.00
2013-9-11,-200,0,200,-100,-100,-100,0,0,100,0.00,40.00,22,16,28,0.00
2013-9-12,-200,0,200,-100,-100,-100,0,0,100,0.00,40.00,21,14,23,0.00
2013-9-13,-200,0,200,-100,-100,-100,0,0,100,0.00,40.00,19,14,22,0.00
2013-9-14,-200,0,200,-100,-100,-100,0,0,100,0.00,40.00,22,16,26,0.00
2013-9-15,-200,0,200,-100,-100,-100,0,0,100,0.00,40.00,24,18,31,0.00
2013-9-16,-200,0,200,-100,-100,-100,0,0,100,0.00,40.00,30,20,41,0.00
2013-9-17,-200,0,200,-100,-100,-100,0,0,100,0.00,40.00,21,16,23,0.00
2013-9-18,-200,0,200,-100,-100,-100,0,0,100,0.00,40.00,18,12,21,0.00
2013-9-19,-200,0,200,-100,-100,-100,0,0,100,0.00,40.00,34,15,42,0.00
2013-9-20,-200,0,200,-100,-100,-100,0,0,100,0.00,40.00,34,18,42,0.00
2013-9-21,-200,0,200,-100,-100,-100,0,0,100,0.00,40.00,30,22,35,0.00
2013-9-22,-200,0,200,-100,-100,-100,0,0,100,0.00,40.00,23,17,27,0.00
2013-9-23,-200,0,200,-100,-100,-100,0,0,100,0.00,40.00,20,13,23,0.00
2013-9-24,-200,0,200,-100,-100,-100,0,0,100,0.00,40.00,15,10,17,0.00
2013-9-25,-200,0,200,-100,-100,-100,0,0,100,0.00,40.00,15,7,17,0.00
2013-9-26,-200,0,200,-100,-100,-100,0,0,100,0.00,40.00,21,14,25,0.00
2013-9-27,-200,0,200,-100,-100,-100,0,0,100,0.00,40.00,23,16,27,0.00
2013-9-28,-200,0,200,-100,-100,-100,0,0,100,0.00,40.00,27,17,30,0.00
2013-9-29,-200,0,200,-100,-100,-100,0,0,100,0.00,40.00,18,10,22,0.00
2013-9-30,-200,0,200,-100,-100,-100,0,0,100,0.00,40.00,16,8,18,0.00
2013-10-1,-200,0,200,-100,-100,-100,0,0,100,0.00,40.00,23,17,26,0.00
2013-10-2,-200,0,200,-100,-100,-100,0,0,100,0.00,40.00,18,13,25,0.00
2013-10-3,-200,0,200,-100,-100,-100,0,0,100,0.00,40.00,17,12,20,0.00
2013-10-4,-200,0,200,-100,-100,-100,0,0,100,0.00,40.00,18,12,20,0.00
2013-10-5,-200,0,200,-100,-100,-100,0,0,100,0.00,40.00,29,7,32,0.00
2013-10-6,-200,0,200,-100,-100,-100,0,0,100,0.00,40.00,32,20,41,0.00
2013-10-7,-200,0,200,-100,-100,-100,0,0,100,0.00,40.00,20,10,23,0.00
2013-10-8,-200,0,200,-100,-100,-100,0,0,100,0.00,40.00,11,6,13,0.00
2013-10-9,-200,0,200,-100,-100,-100,0,0,100,0.00,40.00,16,10,19,0.00
2013-10-10,-200,0,200,-100,-100,-100,0,0,100,0.00,40.00,21,14,24,0.00
2013-10-11,-200,0,200,-100,-100,-100,0,0,100,0.00,40.00,26,14,29,0.00
2013-10-12,-200,0,200,-100,-100,-100,0,0,100,0.00,40.00,20,12,24,0.00
2013-10-13,-200,0,200,-100,-100,-100,0,0,100,0.00,40.00,22,13,36,0.00
2013-10-14,-200,0,200,-100,-100,-100,0,0,100,0.00,40.00,22,15,30,0.00
2013-10-15,-200,0,200,-100,-100,-100,0,0,100,0.00,40.00,18,13,21,0.00
2013-10-16,-200,0,200,-100,-100,-100,0,0,100,0.00,40.00,21,15,25,0.00
2013-10-17,-200,0,200,-100,-100,-100,0,0,100,0.00,40.00,24,15,28,0.00
2013-10-18,-200,0,200,-100,-100,-100,0,0,100,0.00,40.00,25,16,28,0.00
2013-10-19,-200,0,200,-100,-100,-100,0,0,100,0.00,40.00,30,22,35,0.00
2013-10-20,-200,0,200,-100,-100,-100,0,0,100,0.00,40.00,21,12,24,0.00
2013-10-21,-200,0,200,-100,-100,-100,0,0,100,0.00,40.00,19,11,22,0.00
2013-10-22,-200,0,200,-100,-100,-100,0,0,100,0.00,40.00,24,17,26,0.00
2013-10-23,-200,0,200,-100,-100,-100,0,0,100,0.00,40.00,17,8,20,0.00
2013-10-24,-200,0,200,-100,-100,-100,0,0,100,0.00,40.00,11,7,13,0.00
2013-10-25,-200,0,200,-100,-100,-100,0,0,100,0.00,40.00,23,14,27,0.00
2013-10-26,-200,0,200,-100,-100,-100,0,0,100,0.00,40.00,20,16,23,0.00
2013-10-27,-200,0,200,-100,-100,-100,0,0,100,0.00,40.00,25,10,28,0.00
2013-10-28,-200,0,200,-100,-100,-100,0,0,100,0.00,40.00,21,11,24,0.00
2013-10-29,-200,0,200,-100,-100,-100,0,0,100,0.00,40.00,21,14,26,0.00
2013-10-30,-200,0,200,-100,-100,-100,0,0,100,0.00,40.00,23,17,29,0.00
2013-10-31,-200,0,200,-100,-100,-100,0,0,100,0.00,40.00,25,15,37,0.00
2013-11-1,-200,0,200,-100,-100,-100,0,0,100,0.00,40.00,18,10,20,0.00
2013-11-2,-200,0,200,-100,-100,-100,0,0,100,0.00,40.00,32,23,40,0.00
2013-11-3,-200,0,200,-100,-100,-100,0,0,100,0.00,40.00,21,15,26,0.00
2013-11-4,-200,0,200,-100,-100,-100,0,0,100,0.00,40.00,19,11,22,0.00
2013-11-5,-200,0,200,-100,-100,-100,0,0,100,0.00,40.00,23,12,29,0.00
2013-11-6,-200,0,200,-100,-100,-100,0,0,100,0.00,40.00,31,12,38,0.00
2013-11-7,-200,0,200,-100,-100,-100,0,0,100,0.00,40.00,33,23,37,0.00
2013-11-8,-200,0,200,-100,-100,-100,0,0,100,0.00,40.00,26,19,30,0.00
2013-11-9,-200,0,200,-100,-100,-100,0,0,100,0.00,40.00,17,13,19,0.00
2013-11-10,-200,0,200,-100,-100,-100,0,0,100,0.00,40.00,18,11,20,0.00
2013-11-11,-200,0,200,-100,-100,-100,0,0,100,0.00,40.00,15,9,17,0.00
2013-11-12,-200,0,200,-100,-100,-100,0,0,100,0.00,40.00,34,22,39,0.00
2013-11-13,-200,0,200,-100,-100,-100,0,0,100,0.00,40.00,29,17,34,0.00
2013-11-14,-200,0,200,-100,-100,-100,0,0,100,0.00,40.00,19,14,21,0.00
2013-11-15,-200,0,200,-100,-100,-100,0,0,100,0.00,40.00,12,6,13,0.00
2013-11-16,-200,0,200,-100,-100,-100,0,0,100,0.00,40.00,15,8,17,0.00
2013-11-17,-200,0,200,-100,-100,-100,0,0,100,0.00,40.00,15,8,16,0.00
2013-11-18,-200,0,200,-100,-100,-100,0,0,100,0.00,40.00,23,9,26,0.00
2013-11-19,-200,0,200,-100,-100,-100,0,0,100,0.00,40.00,23,19,28,0.00
2013-11-20,-200,0,200,-100,-100,-100,0,0,100,0.00,40.00,19,14,23,0.00
2013-11-21,-200,0,200,-100,-100,-100,0,0,100,0.00,40.00,14,10,15,0.00
2013-11-22,-200,0,200,-100,-100,-100,0,0,100,0.00,40.00,32,20,38,0.00
2013-11-23,-200,0,200,-100,-100,-100,0,0,100,0.00,40.00,32,27,37,0.00
2013-11-24,-200,0,200,-100,-100,-100,0,0,100,0.00,40.00,24,20,30,0.00
2013-11-25,-200,0,200,-100,-100,-100,0,0,100,0.00,40.00,33,23,38,0.00
2013-11-26,-200,0,200,-100,-100,-100,0,0,100,0.00,40.00,33,23,38,0.00
2013-11-27,-200,0,200,-100,-100,-100,0,0,100,0.00,40.00,28,17,32,0.00
2013-11-28,-200,0,200,-100,-100,-100,0,0,100,0.00,40.00,20,13,23,0.00
2013-11-29,-200,0,200,-100,-100,-100,0,0,100,0.00,40.00,23,17,27,0.00
2013-11-30,-200,0,200,-100,-100,-100,0,0,100,0.00,40.00,12,8,13,0.00
2013-12-1,-200,0,200,-100,-100,-100,0,0,100,0.00,40.00,11,4,13,0.00
2013-12-2,-200,0,200,-100,-100,-100,0,0,100,0.00,40.00,17,11,22,0.00
2013-12-3,-200,0,200,-100,-100,-100,0,0,100,0.00,40.00,20,15,25,0.00
2013-12-4,-200,0,200,-100,-100,-100,0,0,100,0.00,40.00,17,9,22,0.00
2013-12-5,-200,0,200,-100,-100,-100,0,0,100,0.00,40.00,31,15,38,0.00
2013-12-6,-200,0,200,-100,-100,-100,0,0,100,0.00,40.00,31,26,36,0.00
2013-12-7,-200,0,200,-100,-100,-100,0,0,100,0.00,40.00,29,19,35,0.00
2013-12-8,-200,0,200,-100,-100,-100,0,0,100,0.00,40.00,17,11,21,0.00
2013-12-9,-200,0,200,-100,-100,-100,0,0,100,0.00,40.00,32,18,37,0.00
2013-12-10,-200,0,200,-100,-100,-100,0,0,100,0.00,40.00,34,21,41,0.00
2013-12-11,-200,0,200,-100,-100,-100,0,0,100,0.00,40.00,16,10,19,0.00
2013-12-12,-200,0,200,-100,-100,-100,0,0,100,0.00,40.00,24,14,27,0.00
2013-12-13,-200,0,200,-100,-100,-100,0,0,100,0.00,40.00,14,8,17,0.00
2013-12-14,-200,0,200,-100,-100,-100,0,0,100,0.00,40.00,31,16,37,0.00
2013-12-15,-200,0,200,-100,-100,-100,0,0,100,0.00,40.00,26,12,29,0.00
2013-12-16,-200,0,200,-100,-100,-100,0,0,100,0.00,40.00,8,4,9,0.00
2013-12-17,-200,0,200,-100,-100,-100,0,0,100,0.00,40.00,8,5,9,0.00
2013-12-18,-200,0,200,-100,-100,-100,0,0,100,0.00,40.00,14,7,16,0.00
2013-12-19,-200,0,200,-100,-100,-100,0,0,100,0.00,40.00,18,12,19,0.00
2013-12-20,-200,0,200,-100,-100,-100,0,0,100,0.00,40.00,22,11,24,0.00
2013-12-21,-200,0,200,-100,-100,-100,0,0,100,0.00,40.00,24,10,31,0.00
2013-12-22,-200,0,200,-100,-100,-100,0,0,100,0.00,40.00,30,16,35,0.00
2013-12-23,-200,0,200,-100,-100,-100,0,0,100,0.00,40.00,32,18,36,0.00
2013-12-24,-200,0,200,-100,-100,-100,0,0,100,0.00,40.00,22,14,25,0.00
2013-12-25,-200,0,200,-100,-100,-100,0,0,100,0.00,40.00,19,13,23,0.00
2013-12-26,-200,0,200,-100,-100,-100,0,0,100,0.00,40.00,19,11,22,0.00
2013-12-27,-200,0,200,-100,-100,-100,0,0,100,0.00,40.00,15,11,17,0.00
2013-12-28,-200,0,200,-100,-100,-100,0,0,100,0.00,40.00,15,8,17,0.00
2013-12-29,-200,0,200,-100,-100,-100,0,0,100,0.00,40.00,21,5,24,0.00
2013-12-30,-200,0,200,-100,-100,-100,0,0,100,0.00,40.00,30,21,36,0.00
2013-12-31,-200,0,200,-100,-100,-100,0,0,100,0.00,40.00,19,11,22,0.00
2014-1-1,-200,0,200,-100,-100,-100,0,0,100,0.00,40.00,12,7,12,0.00
2014-1-2,-200,0,200,-100,-100,-100,0,0,100,0.00,40.00,35,22,41,0.00